Ziguinchor, Senegal
Current Conditions -  °F | °C
As of 3:00 PM on Saturday 20 Dec 2014 (Local Time) from GOGG Reporting Station
Sand / Dust Storm Sand / Dust Storm  
Wind Chill: 90°   Ceiling: Unl
Heat Index: 90°   Visibility: 2.5mi
Dew Point: 48°   Wind: 7mph
Humidity: 24%   Direction: 40°NE
Pressure: 29.94"   Gusts: NA
Location:  12.59°N, 16.29°W
Report Text: GOGG 201500Z 04006KT 4000 DU NSC 32/09 Q1014
Loading
Personal Weather Stations






























Interactive Weather Map New forecast layout! Learn more

10-Day Weather Forecast

Advertisements
Track Severe Weather on mobile